sensor_id;sensor_type;location;lat;lon;timestamp;pressure;altitude;pressure_sealevel;temperature;humidity
81913;BME280;71377;50.698;7.164;2024-01-10T00:02:21;102352.03;;;-4.96;76.77
81913;BME280;71377;50.698;7.164;2024-01-10T00:04:48;102349.16;;;-5.02;78.05
81913;BME280;71377;50.698;7.164;2024-01-10T00:07:15;102343.28;;;-5.00;76.57
81913;BME280;71377;50.698;7.164;2024-01-10T00:09:41;102339.78;;;-5.02;77.83
81913;BME280;71377;50.698;7.164;2024-01-10T00:12:08;102342.50;;;-4.68;76.88
81913;BME280;71377;50.698;7.164;2024-01-10T00:14:34;102343.91;;;-4.73;77.65
81913;BME280;71377;50.698;7.164;2024-01-10T00:17:00;102333.69;;;-4.88;78.12
81913;BME280;71377;50.698;7.164;2024-01-10T00:19:27;102340.09;;;-4.96;78.48
81913;BME280;71377;50.698;7.164;2024-01-10T00:21:53;102344.97;;;-5.00;79.27
81913;BME280;71377;50.698;7.164;2024-01-10T00:24:20;102336.56;;;-4.98;78.72
81913;BME280;71377;50.698;7.164;2024-01-10T00:26:46;102332.88;;;-5.03;79.42
81913;BME280;71377;50.698;7.164;2024-01-10T00:29:12;102334.66;;;-5.02;80.02
81913;BME280;71377;50.698;7.164;2024-01-10T00:31:40;102331.75;;;-5.08;79.56
81913;BME280;71377;50.698;7.164;2024-01-10T00:34:06;102325.59;;;-4.95;79.29
81913;BME280;71377;50.698;7.164;2024-01-10T00:36:33;102324.94;;;-4.76;77.28
81913;BME280;71377;50.698;7.164;2024-01-10T00:38:59;102321.53;;;-4.92;78.27
81913;BME280;71377;50.698;7.164;2024-01-10T00:41:26;102325.66;;;-5.10;79.28
81913;BME280;71377;50.698;7.164;2024-01-10T00:43:53;102323.72;;;-5.14;79.51
81913;BME280;71377;50.698;7.164;2024-01-10T00:46:19;102324.41;;;-5.02;79.18
81913;BME280;71377;50.698;7.164;2024-01-10T00:48:46;102318.03;;;-4.94;78.87
81913;BME280;71377;50.698;7.164;2024-01-10T00:51:12;102315.91;;;-5.01;80.01
81913;BME280;71377;50.698;7.164;2024-01-10T00:53:39;102317.16;;;-5.09;79.11
81913;BME280;71377;50.698;7.164;2024-01-10T00:56:06;102320.84;;;-5.04;78.81
81913;BME280;71377;50.698;7.164;2024-01-10T00:58:33;102317.66;;;-5.00;78.57
81913;BME280;71377;50.698;7.164;2024-01-10T01:01:00;102308.69;;;-5.08;78.83
81913;BME280;71377;50.698;7.164;2024-01-10T01:03:27;102311.69;;;-5.15;79.46
81913;BME280;71377;50.698;7.164;2024-01-10T01:05:53;102311.19;;;-5.24;79.83
81913;BME280;71377;50.698;7.164;2024-01-10T01:08:20;102313.47;;;-5.14;79.38
81913;BME280;71377;50.698;7.164;2024-01-10T01:10:47;102311.22;;;-4.93;79.51
81913;BME280;71377;50.698;7.164;2024-01-10T01:13:14;102312.69;;;-4.97;77.94
81913;BME280;71377;50.698;7.164;2024-01-10T01:15:40;102316.91;;;-5.14;79.01
81913;BME280;71377;50.698;7.164;2024-01-10T01:18:06;102310.16;;;-5.28;78.87
81913;BME280;71377;50.698;7.164;2024-01-10T01:20:33;102309.34;;;-5.27;79.23
81913;BME280;71377;50.698;7.164;2024-01-10T01:23:00;102305.22;;;-5.40;79.57
81913;BME280;71377;50.698;7.164;2024-01-10T01:25:26;102310.91;;;-5.45;79.95
81913;BME280;71377;50.698;7.164;2024-01-10T01:27:53;102311.06;;;-5.42;80.39
81913;BME280;71377;50.698;7.164;2024-01-10T01:30:19;102309.94;;;-5.16;79.46
81913;BME280;71377;50.698;7.164;2024-01-10T01:32:48;102316.31;;;-5.24;79.39
81913;BME280;71377;50.698;7.164;2024-01-10T01:35:14;102312.28;;;-5.35;79.46
81913;BME280;71377;50.698;7.164;2024-01-10T01:37:42;102314.34;;;-5.45;80.16
81913;BME280;71377;50.698;7.164;2024-01-10T01:40:08;102310.69;;;-5.33;79.61
81913;BME280;71377;50.698;7.164;2024-01-10T01:42:35;102316.81;;;-5.15;79.43
81913;BME280;71377;50.698;7.164;2024-01-10T01:45:01;102311.56;;;-5.33;79.07
81913;BME280;71377;50.698;7.164;2024-01-10T01:47:28;102306.38;;;-5.34;79.60
81913;BME280;71377;50.698;7.164;2024-01-10T01:49:54;102312.13;;;-5.38;79.70
81913;BME280;71377;50.698;7.164;2024-01-10T01:52:21;102314.41;;;-5.28;79.74
81913;BME280;71377;50.698;7.164;2024-01-10T01:54:48;102321.56;;;-5.37;79.48
81913;BME280;71377;50.698;7.164;2024-01-10T01:57:14;102312.81;;;-5.41;80.07
81913;BME280;71377;50.698;7.164;2024-01-10T01:59:41;102305.56;;;-5.33;79.54
81913;BME280;71377;50.698;7.164;2024-01-10T02:02:07;102303.97;;;-5.31;79.11
81913;BME280;71377;50.698;7.164;2024-01-10T02:04:34;102304.34;;;-5.40;80.74
81913;BME280;71377;50.698;7.164;2024-01-10T02:07:02;102301.00;;;-5.54;80.83
81913;BME280;71377;50.698;7.164;2024-01-10T02:09:29;102305.84;;;-5.13;80.12
81913;BME280;71377;50.698;7.164;2024-01-10T02:11:55;102302.63;;;-5.25;79.06
81913;BME280;71377;50.698;7.164;2024-01-10T02:14:22;102297.34;;;-5.28;79.34
81913;BME280;71377;50.698;7.164;2024-01-10T02:16:48;102301.13;;;-5.21;79.11
81913;BME280;71377;50.698;7.164;2024-01-10T02:19:22;102300.94;;;-5.24;80.05
81913;BME280;71377;50.698;7.164;2024-01-10T02:21:49;102301.25;;;-5.34;80.27
81913;BME280;71377;50.698;7.164;2024-01-10T02:24:16;102293.91;;;-5.28;80.21
81913;BME280;71377;50.698;7.164;2024-01-10T02:26:43;102291.78;;;-5.21;79.16
81913;BME280;71377;50.698;7.164;2024-01-10T02:29:09;102287.91;;;-5.13;78.62
81913;BME280;71377;50.698;7.164;2024-01-10T02:31:36;102290.09;;;-5.20;78.08
81913;BME280;71377;50.698;7.164;2024-01-10T02:34:02;102292.16;;;-5.29;78.45
81913;BME280;71377;50.698;7.164;2024-01-10T02:36:29;102291.44;;;-5.42;78.54
81913;BME280;71377;50.698;7.164;2024-01-10T02:38:55;102290.03;;;-5.36;78.61
81913;BME280;71377;50.698;7.164;2024-01-10T02:41:21;102296.28;;;-5.31;78.58
81913;BME280;71377;50.698;7.164;2024-01-10T02:43:48;102291.66;;;-5.22;78.18
81913;BME280;71377;50.698;7.164;2024-01-10T02:46:14;102295.44;;;-5.16;77.96
81913;BME280;71377;50.698;7.164;2024-01-10T02:48:41;102292.31;;;-5.26;78.37
81913;BME280;71377;50.698;7.164;2024-01-10T02:51:07;102286.84;;;-5.32;79.62
81913;BME280;71377;50.698;7.164;2024-01-10T02:53:34;102290.03;;;-5.36;79.84
81913;BME280;71377;50.698;7.164;2024-01-10T02:56:00;102286.59;;;-5.37;79.67
81913;BME280;71377;50.698;7.164;2024-01-10T02:58:29;102287.84;;;-5.45;79.79
81913;BME280;71377;50.698;7.164;2024-01-10T03:00:56;102286.53;;;-5.38;80.49
81913;BME280;71377;50.698;7.164;2024-01-10T03:03:24;102284.41;;;-5.46;80.11
81913;BME280;71377;50.698;7.164;2024-01-10T03:05:50;102279.59;;;-5.40;79.91
81913;BME280;71377;50.698;7.164;2024-01-10T03:08:17;102278.72;;;-5.40;79.84
81913;BME280;71377;50.698;7.164;2024-01-10T03:10:43;102278.72;;;-5.40;79.67
81913;BME280;71377;50.698;7.164;2024-01-10T03:13:09;102270.97;;;-5.42;80.10
81913;BME280;71377;50.698;7.164;2024-01-10T03:15:36;102273.97;;;-5.49;79.88
81913;BME280;71377;50.698;7.164;2024-01-10T03:18:02;102283.00;;;-5.24;78.65
81913;BME280;71377;50.698;7.164;2024-01-10T03:20:29;102276.34;;;-5.06;78.27
81913;BME280;71377;50.698;7.164;2024-01-10T03:22:56;102279.94;;;-5.33;78.69
81913;BME280;71377;50.698;7.164;2024-01-10T03:25:22;102279.22;;;-5.31;78.13
81913;BME280;71377;50.698;7.164;2024-01-10T03:27:48;102284.31;;;-5.16;76.90
81913;BME280;71377;50.698;7.164;2024-01-10T03:30:15;102281.16;;;-4.96;77.61
81913;BME280;71377;50.698;7.164;2024-01-10T03:32:44;102283.09;;;-4.92;75.58
81913;BME280;71377;50.698;7.164;2024-01-10T03:35:11;102279.53;;;-5.10;76.20
81913;BME280;71377;50.698;7.164;2024-01-10T03:37:37;102270.59;;;-5.33;77.53
81913;BME280;71377;50.698;7.164;2024-01-10T03:40:07;102263.72;;;-5.34;77.92
81913;BME280;71377;50.698;7.164;2024-01-10T03:42:33;102264.94;;;-5.27;77.65
81913;BME280;71377;50.698;7.164;2024-01-10T03:45:00;102268.53;;;-5.24;78.01
81913;BME280;71377;50.698;7.164;2024-01-10T03:47:26;102263.47;;;-5.22;77.24
81913;BME280;71377;50.698;7.164;2024-01-10T03:49:53;102265.72;;;-5.28;79.07
81913;BME280;71377;50.698;7.164;2024-01-10T03:52:19;102267.50;;;-5.27;77.78
81913;BME280;71377;50.698;7.164;2024-01-10T03:54:46;102266.91;;;-5.38;79.36
81913;BME280;71377;50.698;7.164;2024-01-10T03:57:12;102268.09;;;-5.31;79.10
81913;BME280;71377;50.698;7.164;2024-01-10T03:59:38;102263.47;;;-5.38;79.81
81913;BME280;71377;50.698;7.164;2024-01-10T04:02:06;102260.28;;;-5.49;80.18
81913;BME280;71377;50.698;7.164;2024-01-10T04:04:32;102259.47;;;-5.33;79.95
81913;BME280;71377;50.698;7.164;2024-01-10T04:06:58;102268.94;;;-5.16;79.43
81913;BME280;71377;50.698;7.164;2024-01-10T04:09:25;102262.47;;;-5.41;79.97
81913;BME280;71377;50.698;7.164;2024-01-10T04:11:51;102259.84;;;-5.42;80.14
81913;BME280;71377;50.698;7.164;2024-01-10T04:14:17;102266.91;;;-5.38;80.51
81913;BME280;71377;50.698;7.164;2024-01-10T04:16:44;102257.06;;;-4.99;79.23
81913;BME280;71377;50.698;7.164;2024-01-10T04:19:10;102257.41;;;-5.24;79.98
81913;BME280;71377;50.698;7.164;2024-01-10T04:21:37;102253.84;;;-5.43;80.21
81913;BME280;71377;50.698;7.164;2024-01-10T04:24:04;102260.56;;;-5.45;80.57
81913;BME280;71377;50.698;7.164;2024-01-10T04:26:30;102261.38;;;-5.46;81.05
81913;BME280;71377;50.698;7.164;2024-01-10T04:28:58;102257.88;;;-5.31;80.97
81913;BME280;71377;50.698;7.164;2024-01-10T04:31:24;102260.19;;;-5.36;81.53
81913;BME280;71377;50.698;7.164;2024-01-10T04:33:51;102254.41;;;-5.32;81.69
81913;BME280;71377;50.698;7.164;2024-01-10T04:36:17;102261.06;;;-5.35;81.22
81913;BME280;71377;50.698;7.164;2024-01-10T04:38:44;102253.34;;;-5.21;81.02
81913;BME280;71377;50.698;7.164;2024-01-10T04:41:10;102260.34;;;-5.33;79.65
81913;BME280;71377;50.698;7.164;2024-01-10T04:43:37;102260.06;;;-5.54;81.30
81913;BME280;71377;50.698;7.164;2024-01-10T04:46:03;102250.50;;;-5.56;81.38
81913;BME280;71377;50.698;7.164;2024-01-10T04:48:30;102247.69;;;-5.61;81.55
81913;BME280;71377;50.698;7.164;2024-01-10T04:50:56;102251.22;;;-5.59;81.45
81913;BME280;71377;50.698;7.164;2024-01-10T04:53:22;102250.63;;;-5.55;81.55
81913;BME280;71377;50.698;7.164;2024-01-10T04:55:49;102250.69;;;-5.53;81.52
81913;BME280;71377;50.698;7.164;2024-01-10T04:58:17;102256.41;;;-5.43;81.96
81913;BME280;71377;50.698;7.164;2024-01-10T05:00:43;102255.25;;;-5.48;81.68
81913;BME280;71377;50.698;7.164;2024-01-10T05:03:10;102255.63;;;-5.56;80.39
81913;BME280;71377;50.698;7.164;2024-01-10T05:05:36;102259.84;;;-5.57;81.55
81913;BME280;71377;50.698;7.164;2024-01-10T05:08:03;102254.59;;;-5.60;80.27
81913;BME280;71377;50.698;7.164;2024-01-10T05:10:30;102259.13;;;-5.40;80.76
81913;BME280;71377;50.698;7.164;2024-01-10T05:12:56;102257.81;;;-5.48;79.94
81913;BME280;71377;50.698;7.164;2024-01-10T05:15:22;102256.16;;;-5.47;79.23
81913;BME280;71377;50.698;7.164;2024-01-10T05:17:49;102245.94;;;-5.62;80.01
81913;BME280;71377;50.698;7.164;2024-01-10T05:20:15;102251.78;;;-5.64;79.38
81913;BME280;71377;50.698;7.164;2024-01-10T05:22:42;102248.59;;;-5.60;79.37
81913;BME280;71377;50.698;7.164;2024-01-10T05:25:09;102250.19;;;-5.62;79.49
81913;BME280;71377;50.698;7.164;2024-01-10T05:27:35;102245.22;;;-5.59;79.75
81913;BME280;71377;50.698;7.164;2024-01-10T05:30:02;102246.47;;;-5.68;80.44
81913;BME280;71377;50.698;7.164;2024-01-10T05:32:28;102246.66;;;-5.33;80.85
81913;BME280;71377;50.698;7.164;2024-01-10T05:34:55;102236.91;;;-5.24;80.03
81913;BME280;71377;50.698;7.164;2024-01-10T05:37:21;102240.81;;;-5.47;80.60
81913;BME280;71377;50.698;7.164;2024-01-10T05:39:48;102230.75;;;-5.59;80.61
81913;BME280;71377;50.698;7.164;2024-01-10T05:42:15;102224.66;;;-5.61;81.43
81913;BME280;71377;50.698;7.164;2024-01-10T05:44:42;102227.66;;;-5.68;82.38
81913;BME280;71377;50.698;7.164;2024-01-10T05:47:09;102224.94;;;-5.40;83.00
81913;BME280;71377;50.698;7.164;2024-01-10T05:49:35;102224.16;;;-5.39;82.24
81913;BME280;71377;50.698;7.164;2024-01-10T05:52:02;102230.91;;;-5.25;80.16
81913;BME280;71377;50.698;7.164;2024-01-10T05:54:28;102228.34;;;-5.25;78.66
81913;BME280;71377;50.698;7.164;2024-01-10T05:56:55;102222.50;;;-5.38;80.08
81913;BME280;71377;50.698;7.164;2024-01-10T05:59:21;102224.38;;;-5.51;80.22
81913;BME280;71377;50.698;7.164;2024-01-10T06:01:49;102224.75;;;-5.59;81.79
81913;BME280;71377;50.698;7.164;2024-01-10T06:04:15;102226.13;;;-5.50;81.31
81913;BME280;71377;50.698;7.164;2024-01-10T06:06:42;102227.06;;;-5.64;80.39
81913;BME280;71377;50.698;7.164;2024-01-10T06:09:08;102222.19;;;-5.74;81.96
81913;BME280;71377;50.698;7.164;2024-01-10T06:11:43;102230.00;;;-5.73;82.65
81913;BME280;71377;50.698;7.164;2024-01-10T06:14:10;102229.34;;;-5.69;82.34
81913;BME280;71377;50.698;7.164;2024-01-10T06:16:36;102226.34;;;-5.61;81.42
81913;BME280;71377;50.698;7.164;2024-01-10T06:19:02;102219.03;;;-5.70;81.55
81913;BME280;71377;50.698;7.164;2024-01-10T06:21:30;102220.38;;;-5.77;82.04
81913;BME280;71377;50.698;7.164;2024-01-10T06:23:57;102222.63;;;-5.66;78.70
81913;BME280;71377;50.698;7.164;2024-01-10T06:26:23;102227.56;;;-5.55;77.69
81913;BME280;71377;50.698;7.164;2024-01-10T06:28:49;102210.97;;;-5.61;74.47
81913;BME280;71377;50.698;7.164;2024-01-10T06:31:16;102218.22;;;-5.54;74.31
81913;BME280;71377;50.698;7.164;2024-01-10T06:33:42;102223.81;;;-5.76;75.33
81913;BME280;71377;50.698;7.164;2024-01-10T06:36:09;102227.16;;;-5.77;75.60
81913;BME280;71377;50.698;7.164;2024-01-10T06:38:35;102227.88;;;-5.80;75.04
81913;BME280;71377;50.698;7.164;2024-01-10T06:41:07;102228.47;;;-5.84;75.51
81913;BME280;71377;50.698;7.164;2024-01-10T06:43:34;102229.03;;;-5.89;76.14
81913;BME280;71377;50.698;7.164;2024-01-10T06:46:01;102236.00;;;-5.87;76.20
81913;BME280;71377;50.698;7.164;2024-01-10T06:48:29;102239.94;;;-5.77;74.05
81913;BME280;71377;50.698;7.164;2024-01-10T06:50:55;102233.59;;;-5.84;73.41
81913;BME280;71377;50.698;7.164;2024-01-10T06:53:22;102233.25;;;-5.75;74.17
81913;BME280;71377;50.698;7.164;2024-01-10T06:55:48;102233.25;;;-5.29;72.39
81913;BME280;71377;50.698;7.164;2024-01-10T06:58:15;102232.19;;;-5.64;75.24
81913;BME280;71377;50.698;7.164;2024-01-10T07:00:41;102245.59;;;-5.68;75.48
81913;BME280;71377;50.698;7.164;2024-01-10T07:03:08;102244.78;;;-5.67;75.90
81913;BME280;71377;50.698;7.164;2024-01-10T07:05:34;102242.50;;;-5.62;76.32
81913;BME280;71377;50.698;7.164;2024-01-10T07:08:01;102251.28;;;-5.43;75.36
81913;BME280;71377;50.698;7.164;2024-01-10T07:10:29;102249.97;;;-5.51;75.64
81913;BME280;71377;50.698;7.164;2024-01-10T07:12:56;102234.00;;;-5.30;74.94
81913;BME280;71377;50.698;7.164;2024-01-10T07:15:22;102243.75;;;-5.40;76.18
81913;BME280;71377;50.698;7.164;2024-01-10T07:17:49;102251.03;;;-5.47;77.26
81913;BME280;71377;50.698;7.164;2024-01-10T07:20:15;102251.94;;;-5.61;78.97
81913;BME280;71377;50.698;7.164;2024-01-10T07:22:42;102254.34;;;-5.33;76.61
81913;BME280;71377;50.698;7.164;2024-01-10T07:25:11;102254.28;;;-5.50;77.39
81913;BME280;71377;50.698;7.164;2024-01-10T07:27:41;102262.25;;;-5.60;77.88
81913;BME280;71377;50.698;7.164;2024-01-10T07:30:08;102263.94;;;-5.60;78.94
81913;BME280;71377;50.698;7.164;2024-01-10T07:32:41;102265.75;;;-5.43;77.93
81913;BME280;71377;50.698;7.164;2024-01-10T07:35:08;102266.28;;;-5.49;77.69
81913;BME280;71377;50.698;7.164;2024-01-10T07:37:37;102273.81;;;-5.52;78.55
81913;BME280;71377;50.698;7.164;2024-01-10T07:40:04;102273.38;;;-5.59;78.73
81913;BME280;71377;50.698;7.164;2024-01-10T07:42:35;102263.72;;;-5.49;77.38
81913;BME280;71377;50.698;7.164;2024-01-10T07:45:02;102264.38;;;-5.53;78.54
81913;BME280;71377;50.698;7.164;2024-01-10T07:47:30;102267.00;;;-5.51;78.54
81913;BME280;71377;50.698;7.164;2024-01-10T07:49:57;102272.41;;;-5.61;78.50
81913;BME280;71377;50.698;7.164;2024-01-10T07:52:24;102272.50;;;-5.60;78.68
81913;BME280;71377;50.698;7.164;2024-01-10T07:54:51;102269.19;;;-5.43;80.76
81913;BME280;71377;50.698;7.164;2024-01-10T07:57:17;102274.16;;;-5.15;79.32
81913;BME280;71377;50.698;7.164;2024-01-10T07:59:45;102273.22;;;-5.31;78.82
81913;BME280;71377;50.698;7.164;2024-01-10T08:02:11;102269.34;;;-5.40;79.38
81913;BME280;71377;50.698;7.164;2024-01-10T08:04:39;102270.41;;;-5.21;79.26
81913;BME280;71377;50.698;7.164;2024-01-10T08:07:06;102275.78;;;-5.31;79.79
81913;BME280;71377;50.698;7.164;2024-01-10T08:09:32;102277.81;;;-5.26;80.56
81913;BME280;71377;50.698;7.164;2024-01-10T08:11:59;102280.47;;;-5.24;79.54
81913;BME280;71377;50.698;7.164;2024-01-10T08:14:25;102280.47;;;-5.24;79.36
81913;BME280;71377;50.698;7.164;2024-01-10T08:16:53;102276.44;;;-5.35;80.22
81913;BME280;71377;50.698;7.164;2024-01-10T08:19:20;102266.34;;;-5.32;79.21
81913;BME280;71377;50.698;7.164;2024-01-10T08:21:47;102276.06;;;-5.27;78.73
81913;BME280;71377;50.698;7.164;2024-01-10T08:24:13;102268.97;;;-5.00;77.53
81913;BME280;71377;50.698;7.164;2024-01-10T08:26:42;102273.78;;;-4.90;76.86
81913;BME280;71377;50.698;7.164;2024-01-10T08:29:09;102277.31;;;-4.88;75.60
81913;BME280;71377;50.698;7.164;2024-01-10T08:31:35;102272.03;;;-4.91;75.91
81913;BME280;71377;50.698;7.164;2024-01-10T08:34:01;102274.34;;;-4.95;76.22
81913;BME280;71377;50.698;7.164;2024-01-10T08:36:29;102268.94;;;-4.69;72.96
81913;BME280;71377;50.698;7.164;2024-01-10T08:38:55;102280.72;;;-4.56;71.46
81913;BME280;71377;50.698;7.164;2024-01-10T08:41:23;102281.34;;;-4.44;72.59
81913;BME280;71377;50.698;7.164;2024-01-10T08:43:50;102277.09;;;-4.43;71.86
81913;BME280;71377;50.698;7.164;2024-01-10T08:46:17;102275.78;;;-4.19;72.23
81913;BME280;71377;50.698;7.164;2024-01-10T08:48:44;102265.16;;;-4.09;69.24
81913;BME280;71377;50.698;7.164;2024-01-10T08:51:11;102272.66;;;-4.13;69.59
81913;BME280;71377;50.698;7.164;2024-01-10T08:53:38;102273.84;;;-4.07;67.66
81913;BME280;71377;50.698;7.164;2024-01-10T08:56:05;102277.91;;;-3.76;66.52
81913;BME280;71377;50.698;7.164;2024-01-10T08:58:31;102283.22;;;-3.73;64.70
81913;BME280;71377;50.698;7.164;2024-01-10T09:00:58;102276.84;;;-3.63;64.12
81913;BME280;71377;50.698;7.164;2024-01-10T09:03:24;102284.31;;;-3.68;64.67
81913;BME280;71377;50.698;7.164;2024-01-10T09:05:51;102286.69;;;-3.37;63.47
81913;BME280;71377;50.698;7.164;2024-01-10T09:08:34;102291.53;;;-3.43;63.51
81913;BME280;71377;50.698;7.164;2024-01-10T09:11:01;102286.75;;;-3.53;63.91
81913;BME280;71377;50.698;7.164;2024-01-10T09:13:28;102298.56;;;-3.39;63.88
81913;BME280;71377;50.698;7.164;2024-01-10T09:15:55;102291.38;;;-3.10;63.16
81913;BME280;71377;50.698;7.164;2024-01-10T09:18:21;102287.06;;;-3.29;62.84
81913;BME280;71377;50.698;7.164;2024-01-10T09:20:48;102291.44;;;-3.09;62.63
81913;BME280;71377;50.698;7.164;2024-01-10T09:23:15;102291.06;;;-3.17;63.13
81913;BME280;71377;50.698;7.164;2024-01-10T09:25:42;102294.66;;;-3.13;63.38
81913;BME280;71377;50.698;7.164;2024-01-10T09:28:08;102296.56;;;-3.09;62.78
81913;BME280;71377;50.698;7.164;2024-01-10T09:30:35;102300.16;;;-2.68;61.82
81913;BME280;71377;50.698;7.164;2024-01-10T09:33:04;102294.25;;;-2.85;62.06
81913;BME280;71377;50.698;7.164;2024-01-10T09:35:31;102290.44;;;-2.93;61.05
81913;BME280;71377;50.698;7.164;2024-01-10T09:37:57;102290.13;;;-2.81;60.49
81913;BME280;71377;50.698;7.164;2024-01-10T09:40:26;102299.19;;;-3.07;61.33
81913;BME280;71377;50.698;7.164;2024-01-10T09:42:55;102301.91;;;-3.04;61.70
81913;BME280;71377;50.698;7.164;2024-01-10T09:45:21;102303.69;;;-3.03;62.02
81913;BME280;71377;50.698;7.164;2024-01-10T09:47:56;102295.59;;;-2.93;61.38
81913;BME280;71377;50.698;7.164;2024-01-10T09:50:23;102301.97;;;-2.85;60.88
81913;BME280;71377;50.698;7.164;2024-01-10T09:52:53;102305.06;;;-2.92;60.62
81913;BME280;71377;50.698;7.164;2024-01-10T09:55:21;102299.69;;;-2.97;60.59
81913;BME280;71377;50.698;7.164;2024-01-10T09:57:50;102303.47;;;-2.71;59.75
81913;BME280;71377;50.698;7.164;2024-01-10T10:00:17;102300.88;;;-2.71;59.95
81913;BME280;71377;50.698;7.164;2024-01-10T10:02:45;102298.72;;;-2.62;58.35
81913;BME280;71377;50.698;7.164;2024-01-10T10:05:17;102305.50;;;-2.64;58.47
81913;BME280;71377;50.698;7.164;2024-01-10T10:07:48;102294.75;;;-2.55;58.70
81913;BME280;71377;50.698;7.164;2024-01-10T10:10:16;102296.31;;;-2.78;59.56
81913;BME280;71377;50.698;7.164;2024-01-10T10:12:47;102299.59;;;-2.61;59.76
81913;BME280;71377;50.698;7.164;2024-01-10T10:15:16;102301.09;;;-2.47;58.78
81913;BME280;71377;50.698;7.164;2024-01-10T10:17:46;102301.16;;;-2.26;57.04
81913;BME280;71377;50.698;7.164;2024-01-10T10:20:20;102297.13;;;-2.60;58.42
81913;BME280;71377;50.698;7.164;2024-01-10T10:23:07;102291.69;;;-2.46;57.76
81913;BME280;71377;50.698;7.164;2024-01-10T10:25:43;102288.31;;;-2.45;58.76
81913;BME280;71377;50.698;7.164;2024-01-10T10:28:10;102294.81;;;-2.53;58.68
81913;BME280;71377;50.698;7.164;2024-01-10T10:30:55;102289.06;;;-2.67;59.22
81913;BME280;71377;50.698;7.164;2024-01-10T10:33:21;102290.34;;;-2.38;57.98
81913;BME280;71377;50.698;7.164;2024-01-10T10:35:49;102280.53;;;-2.47;58.36
81913;BME280;71377;50.698;7.164;2024-01-10T10:38:21;102289.53;;;-2.37;59.39
81913;BME280;71377;50.698;7.164;2024-01-10T10:40:48;102288.84;;;-2.14;58.11
81913;BME280;71377;50.698;7.164;2024-01-10T10:43:18;102287.88;;;-2.35;58.71
81913;BME280;71377;50.698;7.164;2024-01-10T10:45:48;102282.97;;;-2.31;58.62
81913;BME280;71377;50.698;7.164;2024-01-10T10:48:17;102280.97;;;-2.36;58.18
81913;BME280;71377;50.698;7.164;2024-01-10T10:53:23;102268.13;;;-2.17;57.40
81913;BME280;71377;50.698;7.164;2024-01-10T10:55:53;102274.16;;;-2.16;58.99
81913;BME280;71377;50.698;7.164;2024-01-10T10:58:21;102270.88;;;-2.12;58.87
81913;BME280;71377;50.698;7.164;2024-01-10T11:00:51;102266.88;;;-2.06;58.25
81913;BME280;71377;50.698;7.164;2024-01-10T11:03:18;102270.22;;;-2.08;57.22
81913;BME280;71377;50.698;7.164;2024-01-10T11:05:45;102269.28;;;-1.89;57.73
81913;BME280;71377;50.698;7.164;2024-01-10T11:08:15;102276.66;;;-1.76;56.93
81913;BME280;71377;50.698;7.164;2024-01-10T11:10:44;102280.41;;;-1.90;57.26
81913;BME280;71377;50.698;7.164;2024-01-10T11:13:28;102276.38;;;-1.40;55.82
81913;BME280;71377;50.698;7.164;2024-01-10T11:16:24;102276.19;;;-1.24;56.21
81913;BME280;71377;50.698;7.164;2024-01-10T11:25:12;102271.59;;;-1.31;56.29
81913;BME280;71377;50.698;7.164;2024-01-10T11:27:38;102267.97;;;-1.36;57.98
81913;BME280;71377;50.698;7.164;2024-01-10T11:30:05;102262.41;;;-1.25;57.10
81913;BME280;71377;50.698;7.164;2024-01-10T11:32:32;102263.53;;;-1.18;55.55
81913;BME280;71377;50.698;7.164;2024-01-10T11:35:05;102251.97;;;-1.05;56.83
81913;BME280;71377;50.698;7.164;2024-01-10T11:37:39;102256.16;;;-1.09;57.17
81913;BME280;71377;50.698;7.164;2024-01-10T11:40:08;102260.28;;;-0.90;54.92
81913;BME280;71377;50.698;7.164;2024-01-10T11:42:45;102252.13;;;-0.78;55.10
81913;BME280;71377;50.698;7.164;2024-01-10T11:47:57;102246.88;;;-0.08;52.02
81913;BME280;71377;50.698;7.164;2024-01-10T11:50:24;102252.19;;;-0.53;53.20
81913;BME280;71377;50.698;7.164;2024-01-10T11:52:53;102252.34;;;-0.72;53.44
81913;BME280;71377;50.698;7.164;2024-01-10T11:55:49;102250.50;;;-0.76;53.94
81913;BME280;71377;50.698;7.164;2024-01-10T11:58:17;102243.91;;;-0.68;53.26
81913;BME280;71377;50.698;7.164;2024-01-10T12:00:43;102244.06;;;-0.64;52.96
81913;BME280;71377;50.698;7.164;2024-01-10T12:03:11;102234.66;;;-0.62;53.83
81913;BME280;71377;50.698;7.164;2024-01-10T12:05:38;102241.84;;;-0.53;54.06
81913;BME280;71377;50.698;7.164;2024-01-10T12:08:06;102243.09;;;-0.67;55.87
81913;BME280;71377;50.698;7.164;2024-01-10T12:10:33;102237.75;;;-0.48;55.24
81913;BME280;71377;50.698;7.164;2024-01-10T12:13:05;102232.41;;;-0.52;54.80
81913;BME280;71377;50.698;7.164;2024-01-10T12:15:32;102237.38;;;-0.59;55.58
81913;BME280;71377;50.698;7.164;2024-01-10T12:18:00;102237.75;;;-0.48;55.19
81913;BME280;71377;50.698;7.164;2024-01-10T12:20:26;102231.38;;;-0.58;56.19
81913;BME280;71377;50.698;7.164;2024-01-10T12:22:54;102227.69;;;-0.64;56.62
81913;BME280;71377;50.698;7.164;2024-01-10T12:25:21;102229.91;;;-0.51;56.86
81913;BME280;71377;50.698;7.164;2024-01-10T12:27:48;102227.84;;;-0.10;55.33
81913;BME280;71377;50.698;7.164;2024-01-10T12:30:15;102214.22;;;-0.06;54.05
81913;BME280;71377;50.698;7.164;2024-01-10T12:32:42;102219.28;;;-0.09;55.14
81913;BME280;71377;50.698;7.164;2024-01-10T12:35:09;102214.38;;;-0.02;54.52
81913;BME280;71377;50.698;7.164;2024-01-10T12:37:35;102222.56;;;-0.15;55.42
81913;BME280;71377;50.698;7.164;2024-01-10T12:40:02;102212.28;;;0.41;53.36
81913;BME280;71377;50.698;7.164;2024-01-10T12:42:36;102222.13;;;0.25;54.50
81913;BME280;71377;50.698;7.164;2024-01-10T12:45:02;102216.78;;;0.19;53.41
81913;BME280;71377;50.698;7.164;2024-01-10T12:47:30;102214.16;;;0.18;53.71
81913;BME280;71377;50.698;7.164;2024-01-10T12:49:58;102207.13;;;0.14;53.65
81913;BME280;71377;50.698;7.164;2024-01-10T12:52:24;102214.38;;;0.25;53.96
81913;BME280;71377;50.698;7.164;2024-01-10T12:54:52;102210.91;;;0.52;53.20
81913;BME280;71377;50.698;7.164;2024-01-10T12:57:19;102211.97;;;0.59;53.36
81913;BME280;71377;50.698;7.164;2024-01-10T12:59:46;102203.91;;;0.48;52.58
81913;BME280;71377;50.698;7.164;2024-01-10T13:02:13;102204.94;;;0.53;53.10
81913;BME280;71377;50.698;7.164;2024-01-10T13:04:39;102206.41;;;0.73;52.08